Time;durP1;ratioP1;P1;durP2;ratioP2;P2;SDS_P1;SDS_P2;PMS_P1;PMS_P2;Temp;Humidity;BMP_temperature;BMP_pressure;BME280_temperature;BME280_humidity;BME280_pressure;Samples;Min_cycle;Max_cycle;Signal;HPM_P1;HPM_P2
2022/12/12 00:00:51;;;;;;;5.32;4.25;;;;;;;;;;2092298;28;20509;-81
2022/12/12 00:02:10;;;;;;;4.47;4.07;;;;;;;;;;2095564;28;20039;-81
2022/12/12 00:03:29;;;;;;;5.63;3.95;;;;;;;;;;2096596;28;20055;-81
2022/12/12 00:04:48;;;;;;;4.25;3.90;;;;;;;;;;2096483;28;20037;-81
2022/12/12 00:06:07;;;;;;;4.45;3.92;;;;;;;;;;2100640;28;20032;-81
2022/12/12 00:07:26;;;;;;;5.03;3.92;;;;;;;;;;2100668;28;20020;-81
2022/12/12 00:08:45;;;;;;;4.30;3.90;;;;;;;;;;2099084;28;20021;-81
2022/12/12 00:10:04;;;;;;;5.38;3.60;;;;;;;;;;2097308;28;20016;-80
2022/12/12 00:11:24;;;;;;;5.95;3.95;;;;;;;;;;2096315;28;20103;-80
2022/12/12 00:12:43;;;;;;;4.95;3.95;;;;;;;;;;2096637;28;20029;-81
2022/12/12 00:14:02;;;;;;;5.55;3.58;;;;;;;;;;2097062;28;20486;-81
2022/12/12 00:15:22;;;;;;;4.03;3.58;;;;;;;;;;2099414;28;20518;-80
2022/12/12 00:16:41;;;;;;;4.45;3.38;;;;;;;;;;2095583;28;20501;-81
2022/12/12 00:17:59;;;;;;;4.65;3.53;;;;;;;;;;2100903;28;20060;-80
2022/12/12 00:19:19;;;;;;;4.10;3.33;;;;;;;;;;2100123;28;20196;-81
2022/12/12 00:20:38;;;;;;;4.60;3.55;;;;;;;;;;2099625;28;20032;-81
2022/12/12 00:21:57;;;;;;;3.38;3.10;;;;;;;;;;2096299;28;20024;-81
2022/12/12 00:23:16;;;;;;;4.07;3.67;;;;;;;;;;2101225;28;20028;-80
2022/12/12 00:24:35;;;;;;;4.43;3.58;;;;;;;;;;2100321;28;20108;-80
2022/12/12 00:25:55;;;;;;;4.13;2.97;;;;;;;;;;2102853;28;20020;-81
2022/12/12 00:27:14;;;;;;;3.78;3.47;;;;;;;;;;2101925;28;20032;-80
2022/12/12 00:28:33;;;;;;;5.72;3.45;;;;;;;;;;2096842;28;20033;-79
2022/12/12 00:29:53;;;;;;;3.65;3.35;;;;;;;;;;2100425;28;20486;-81
2022/12/12 00:31:12;;;;;;;3.53;3.22;;;;;;;;;;2096171;28;20040;-81
2022/12/12 00:32:31;;;;;;;3.83;3.53;;;;;;;;;;2101414;28;20481;-80
2022/12/12 00:33:50;;;;;;;3.92;3.30;;;;;;;;;;2092028;28;20044;-80
2022/12/12 00:35:09;;;;;;;3.90;3.60;;;;;;;;;;2096936;28;20037;-81
2022/12/12 00:36:29;;;;;;;4.38;3.97;;;;;;;;;;2099475;28;20025;-81
2022/12/12 00:37:48;;;;;;;3.75;3.42;;;;;;;;;;2099992;28;20580;-81
2022/12/12 00:39:07;;;;;;;3.65;3.30;;;;;;;;;;2099481;28;20024;-80
2022/12/12 00:40:26;;;;;;;3.47;3.22;;;;;;;;;;2096362;28;20518;-81
2022/12/12 00:41:45;;;;;;;6.28;4.05;;;;;;;;;;2097204;28;20091;-80
2022/12/12 00:43:04;;;;;;;3.92;3.53;;;;;;;;;;2098224;28;20060;-81
2022/12/12 00:44:23;;;;;;;3.60;3.30;;;;;;;;;;2098007;28;20040;-81
2022/12/12 00:45:42;;;;;;;4.22;3.50;;;;;;;;;;2099561;28;20489;-81
2022/12/12 00:47:01;;;;;;;3.60;3.30;;;;;;;;;;2096442;28;20064;-81
2022/12/12 00:48:20;;;;;;;6.13;4.25;;;;;;;;;;2098272;28;20028;-80
2022/12/12 00:49:39;;;;;;;3.90;3.60;;;;;;;;;;2099639;28;20099;-81
2022/12/12 00:51:04;;;;;;;4.53;3.72;;;;;;;;;;2095754;28;20045;-81
2022/12/12 00:52:22;;;;;;;4.10;3.70;;;;;;;;;;2096359;28;20087;-81
2022/12/12 00:53:41;;;;;;;3.45;3.15;;;;;;;;;;2097036;28;20036;-82
2022/12/12 00:55:00;;;;;;;4.10;3.20;;;;;;;;;;2101437;28;20404;-81
2022/12/12 00:56:20;;;;;;;4.18;3.78;;;;;;;;;;2100734;28;20116;-82
2022/12/12 00:57:39;;;;;;;4.53;3.25;;;;;;;;;;2097351;28;20036;-81
2022/12/12 00:58:58;;;;;;;3.88;3.47;;;;;;;;;;2098156;28;20025;-81
2022/12/12 01:00:17;;;;;;;4.07;3.40;;;;;;;;;;2097095;28;20029;-81
2022/12/12 01:01:36;;;;;;;5.50;3.85;;;;;;;;;;2097065;28;20481;-80
2022/12/12 01:02:56;;;;;;;4.30;3.88;;;;;;;;;;2104458;28;20040;-81
2022/12/12 01:04:15;;;;;;;4.07;3.60;;;;;;;;;;2100349;28;20025;-81
2022/12/12 01:05:34;;;;;;;4.93;4.22;;;;;;;;;;2100047;28;20032;-81
2022/12/12 01:06:53;;;;;;;3.78;3.47;;;;;;;;;;2095666;28;20030;-81
2022/12/12 01:08:12;;;;;;;3.97;3.20;;;;;;;;;;2099859;28;20968;-81
2022/12/12 01:09:30;;;;;;;4.78;3.60;;;;;;;;;;2100553;28;20035;-80
2022/12/12 01:10:52;;;;;;;4.93;3.65;;;;;;;;;;2100768;28;20017;-80
2022/12/12 01:12:11;;;;;;;5.80;4.22;;;;;;;;;;2098010;28;20385;-81
2022/12/12 01:13:30;;;;;;;4.82;3.75;;;;;;;;;;2102360;28;20040;-81
2022/12/12 01:14:49;;;;;;;5.28;4.00;;;;;;;;;;2102195;28;20028;-81
2022/12/12 01:16:08;;;;;;;5.30;4.72;;;;;;;;;;2097787;28;20397;-81
2022/12/12 01:17:28;;;;;;;5.22;3.75;;;;;;;;;;2097561;28;20051;-81
2022/12/12 01:18:48;;;;;;;5.50;4.03;;;;;;;;;;2100901;28;20029;-81
2022/12/12 01:20:14;;;;;;;4.55;4.15;;;;;;;;;;2097897;28;20036;-81
2022/12/12 01:21:33;;;;;;;8.45;4.75;;;;;;;;;;2090675;28;20029;-82
2022/12/12 01:22:52;;;;;;;4.30;3.90;;;;;;;;;;2096145;28;20032;-81
2022/12/12 01:24:11;;;;;;;4.90;3.92;;;;;;;;;;2099170;28;20024;-82
2022/12/12 01:25:30;;;;;;;4.40;3.95;;;;;;;;;;2095714;28;20016;-80
2022/12/12 01:26:50;;;;;;;4.13;3.72;;;;;;;;;;2096854;28;20033;-81
2022/12/12 01:28:09;;;;;;;5.50;3.92;;;;;;;;;;2101057;28;20028;-81
2022/12/12 01:29:28;;;;;;;4.43;4.03;;;;;;;;;;2099778;28;20474;-81
2022/12/12 01:30:47;;;;;;;4.22;3.83;;;;;;;;;;2098381;28;20087;-80
2022/12/12 01:32:06;;;;;;;5.30;4.00;;;;;;;;;;2100560;28;20028;-81
2022/12/12 01:33:25;;;;;;;4.85;3.83;;;;;;;;;;2099974;28;20044;-81
2022/12/12 01:34:44;;;;;;;6.00;4.38;;;;;;;;;;2095727;28;20020;-81
2022/12/12 01:36:03;;;;;;;6.28;3.97;;;;;;;;;;2099203;28;20447;-80
2022/12/12 01:37:22;;;;;;;5.10;4.60;;;;;;;;;;2096870;28;20040;-80
2022/12/12 01:38:43;;;;;;;4.72;3.90;;;;;;;;;;2095382;28;20163;-81
2022/12/12 01:40:02;;;;;;;5.03;4.25;;;;;;;;;;2100226;28;20068;-81
2022/12/12 01:41:21;;;;;;;4.40;3.95;;;;;;;;;;2097263;28;20025;-80
2022/12/12 01:42:40;;;;;;;4.18;3.85;;;;;;;;;;2097273;28;20514;-81
2022/12/12 01:44:01;;;;;;;6.55;4.70;;;;;;;;;;2100380;28;20028;-80
2022/12/12 01:45:38;;;;;;;4.70;3.95;;;;;;;;;;2100745;28;20044;-82
2022/12/12 01:46:58;;;;;;;4.22;3.85;;;;;;;;;;2108977;28;20508;-80
2022/12/12 01:48:17;;;;;;;5.65;4.35;;;;;;;;;;2100434;28;20040;-82
2022/12/12 01:49:36;;;;;;;4.80;4.38;;;;;;;;;;2097233;28;20020;-81
2022/12/12 01:50:56;;;;;;;4.60;4.20;;;;;;;;;;2098357;28;20571;-83
2022/12/12 01:52:17;;;;;;;4.90;4.40;;;;;;;;;;2096749;28;20409;-82
2022/12/12 01:53:37;;;;;;;5.15;3.88;;;;;;;;;;2098013;28;20099;-81
2022/12/12 01:54:58;;;;;;;4.63;3.85;;;;;;;;;;2096777;28;20041;-82
2022/12/12 01:56:18;;;;;;;4.53;4.13;;;;;;;;;;2094061;28;20032;-82
2022/12/12 01:57:38;;;;;;;4.03;3.63;;;;;;;;;;2099836;28;20036;-82
2022/12/12 01:58:59;;;;;;;5.10;4.18;;;;;;;;;;2100149;28;20044;-82
2022/12/12 02:00:18;;;;;;;4.50;4.10;;;;;;;;;;2099791;28;20496;-81
2022/12/12 02:01:37;;;;;;;5.00;4.50;;;;;;;;;;2101794;28;20027;-81
2022/12/12 02:02:56;;;;;;;4.20;3.80;;;;;;;;;;2097563;28;20397;-81
2022/12/12 02:04:15;;;;;;;5.70;4.57;;;;;;;;;;2100065;28;20045;-80
2022/12/12 02:05:54;;;;;;;4.63;4.18;;;;;;;;;;2096606;28;20028;-81
2022/12/12 02:07:14;;;;;;;5.18;4.30;;;;;;;;;;2097679;28;20025;-80
2022/12/12 02:08:33;;;;;;;4.53;4.05;;;;;;;;;;2097682;28;20067;-80
2022/12/12 02:09:53;;;;;;;4.85;4.35;;;;;;;;;;2103704;28;20154;-81
2022/12/12 02:11:12;;;;;;;7.60;4.53;;;;;;;;;;2101501;28;20033;-81
2022/12/12 02:12:31;;;;;;;4.78;4.00;;;;;;;;;;2100998;28;20020;-81
2022/12/12 02:13:50;;;;;;;4.13;3.70;;;;;;;;;;2097808;28;20680;-80
2022/12/12 02:15:09;;;;;;;4.20;3.83;;;;;;;;;;2096577;28;20037;-80
2022/12/12 02:16:31;;;;;;;4.65;4.25;;;;;;;;;;2101686;28;20056;-80
2022/12/12 02:17:58;;;;;;;4.97;4.32;;;;;;;;;;2096729;28;20092;-80
2022/12/12 02:19:33;;;;;;;4.35;3.95;;;;;;;;;;2097361;28;20037;-79
2022/12/12 02:20:58;;;;;;;4.65;4.13;;;;;;;;;;2098368;28;20033;-80
2022/12/12 02:22:23;;;;;;;5.82;4.68;;;;;;;;;;2091811;28;20044;-80
2022/12/12 02:23:57;;;;;;;4.78;4.32;;;;;;;;;;2096365;28;20036;-82
2022/12/12 02:25:16;;;;;;;4.45;3.72;;;;;;;;;;2099104;28;20041;-80
2022/12/12 02:26:47;;;;;;;5.32;4.03;;;;;;;;;;2096226;28;20028;-81
2022/12/12 02:28:07;;;;;;;5.43;4.55;;;;;;;;;;2099240;28;20041;-80
2022/12/12 02:29:32;;;;;;;4.65;4.10;;;;;;;;;;2096869;28;20028;-80
2022/12/12 02:31:09;;;;;;;5.15;4.63;;;;;;;;;;2095082;28;20548;-80
2022/12/12 02:32:28;;;;;;;6.30;4.47;;;;;;;;;;2107687;28;20085;-80
2022/12/12 02:34:05;;;;;;;4.78;4.28;;;;;;;;;;2099955;28;20024;-80
2022/12/12 02:35:30;;;;;;;5.78;4.50;;;;;;;;;;2102198;28;20456;-81
2022/12/12 02:36:55;;;;;;;4.53;4.13;;;;;;;;;;2103161;28;20056;-81
2022/12/12 02:38:25;;;;;;;4.82;4.43;;;;;;;;;;2101391;28;20040;-81
2022/12/12 02:39:52;;;;;;;5.60;5.05;;;;;;;;;;2107477;28;20019;-82
2022/12/12 02:41:20;;;;;;;5.38;4.50;;;;;;;;;;2105083;28;20024;-81
2022/12/12 02:42:39;;;;;;;4.57;4.10;;;;;;;;;;2111197;28;20023;-81
2022/12/12 02:44:05;;;;;;;4.68;4.22;;;;;;;;;;2101308;28;20024;-80
2022/12/12 02:45:39;;;;;;;6.05;4.80;;;;;;;;;;2101909;28;20036;-81
2022/12/12 02:47:17;;;;;;;5.90;4.97;;;;;;;;;;2099993;28;20815;-81
2022/12/12 02:48:39;;;;;;;5.68;4.70;;;;;;;;;;2101718;28;20032;-81
2022/12/12 02:50:01;;;;;;;6.40;5.38;;;;;;;;;;2101937;28;20060;-81
2022/12/12 02:51:21;;;;;;;6.15;4.55;;;;;;;;;;2107660;28;20020;-81
2022/12/12 02:52:44;;;;;;;5.65;5.05;;;;;;;;;;2100412;28;20020;-81
2022/12/12 02:54:04;;;;;;;5.35;4.78;;;;;;;;;;2099892;28;20028;-81
2022/12/12 02:55:23;;;;;;;5.05;4.55;;;;;;;;;;2100788;28;20028;-81
2022/12/12 02:56:47;;;;;;;5.13;4.55;;;;;;;;;;2099371;28;20024;-81
2022/12/12 02:58:06;;;;;;;6.45;5.15;;;;;;;;;;2098305;28;20021;-81
2022/12/12 02:59:30;;;;;;;5.43;4.50;;;;;;;;;;2099467;28;20032;-81
2022/12/12 03:01:15;;;;;;;7.78;4.68;;;;;;;;;;2099665;28;20016;-81
2022/12/12 03:02:37;;;;;;;5.35;4.85;;;;;;;;;;2109603;28;20035;-81
2022/12/12 03:09:11;;;;;;;6.38;5.10;;;;;;;;;;2101259;28;20024;-80
2022/12/12 03:10:36;;;;;;;6.97;5.28;;;;;;;;;;2101402;28;20032;-81
2022/12/12 03:11:55;;;;;;;5.30;4.80;;;;;;;;;;2101011;28;20564;-82
2022/12/12 03:13:14;;;;;;;6.30;5.07;;;;;;;;;;2101396;28;20389;-80
2022/12/12 03:14:41;;;;;;;5.45;4.95;;;;;;;;;;2100811;28;20051;-80
2022/12/12 03:16:00;;;;;;;6.55;4.88;;;;;;;;;;2100324;28;20036;-80
2022/12/12 03:17:25;;;;;;;6.53;5.03;;;;;;;;;;2100191;28;20425;-81
2022/12/12 03:18:56;;;;;;;9.38;5.18;;;;;;;;;;2098279;28;20085;-80
2022/12/12 03:20:18;;;;;;;5.55;4.90;;;;;;;;;;2098093;28;20028;-80
2022/12/12 03:21:40;;;;;;;5.97;4.90;;;;;;;;;;2099053;28;20032;-80
2022/12/12 03:23:12;;;;;;;7.25;5.20;;;;;;;;;;2091047;28;20509;-81
2022/12/12 03:24:34;;;;;;;8.20;5.00;;;;;;;;;;2098665;28;20064;-80
2022/12/12 03:25:58;;;;;;;8.20;5.15;;;;;;;;;;2102569;28;20605;-81
2022/12/12 03:27:17;;;;;;;5.72;4.95;;;;;;;;;;2102053;28;20024;-80
2022/12/12 03:28:44;;;;;;;6.10;4.90;;;;;;;;;;2097599;28;20024;-80
2022/12/12 03:30:09;;;;;;;8.57;5.65;;;;;;;;;;2106546;28;20032;-79
2022/12/12 03:31:30;;;;;;;6.72;5.68;;;;;;;;;;2100929;28;20028;-80
2022/12/12 03:32:52;;;;;;;5.57;5.00;;;;;;;;;;2102327;28;20028;-80
2022/12/12 03:34:15;;;;;;;5.88;5.28;;;;;;;;;;2099777;28;20028;-80
2022/12/12 03:35:37;;;;;;;6.28;4.93;;;;;;;;;;2097672;28;20032;-80
2022/12/12 03:37:03;;;;;;;5.95;4.78;;;;;;;;;;2092120;28;20111;-80
2022/12/12 03:38:24;;;;;;;5.55;4.75;;;;;;;;;;2096567;28;20028;-80
2022/12/12 03:39:46;;;;;;;6.07;4.88;;;;;;;;;;2098192;28;20027;-79
2022/12/12 03:41:07;;;;;;;8.30;4.95;;;;;;;;;;2101709;28;20032;-79
2022/12/12 03:42:32;;;;;;;6.75;4.90;;;;;;;;;;2109921;28;20024;-80
2022/12/12 03:43:57;;;;;;;8.95;5.95;;;;;;;;;;2098292;28;20048;-79
2022/12/12 03:45:28;;;;;;;5.80;4.90;;;;;;;;;;2106068;28;20059;-82
2022/12/12 03:46:49;;;;;;;5.63;4.80;;;;;;;;;;2103813;28;20032;-80
2022/12/12 03:48:12;;;;;;;5.80;5.22;;;;;;;;;;2098484;28;20025;-81
2022/12/12 03:49:31;;;;;;;;;;;;;;;;;;2099712;28;20028;-80
2022/12/12 03:50:52;;;;;;;5.80;5.18;;;;;;;;;;2099634;28;19943;-81
2022/12/12 03:52:30;;;;;;;8.50;4.88;;;;;;;;;;2097423;28;20052;-81
2022/12/12 03:54:09;;;;;;;6.80;5.38;;;;;;;;;;2101433;28;20024;-81
2022/12/12 03:55:32;;;;;;;5.75;5.20;;;;;;;;;;2099820;28;20036;-81
2022/12/12 03:56:54;;;;;;;7.22;4.90;;;;;;;;;;2104696;28;20036;-81
2022/12/12 03:58:36;;;;;;;5.30;4.50;;;;;;;;;;2101492;28;20029;-80
2022/12/12 04:00:00;;;;;;;8.07;5.15;;;;;;;;;;2100212;28;20279;-81
2022/12/12 04:01:22;;;;;;;6.15;5.55;;;;;;;;;;2101395;28;20040;-82
2022/12/12 04:02:53;;;;;;;7.78;5.57;;;;;;;;;;2110614;28;20102;-80
2022/12/12 04:04:19;;;;;;;6.65;4.97;;;;;;;;;;2101773;28;20021;-79
2022/12/12 04:06:25;;;;;;;6.65;4.75;;;;;;;;;;2098782;28;20111;-80
2022/12/12 04:07:29;;;;;;;5.70;4.82;;;;;;;;;;2100591;28;20850;-80
2022/12/12 04:13:50;;;;;;;7.57;5.18;;;;;;;;;;2100049;28;20024;-81
2022/12/12 04:15:18;;;;;;;6.28;4.95;;;;;;;;;;2099669;28;20481;-80
2022/12/12 04:16:41;;;;;;;5.55;4.97;;;;;;;;;;2106900;28;20028;-79
2022/12/12 04:18:00;;;;;;;5.65;4.70;;;;;;;;;;2101867;28;20024;-80
2022/12/12 04:23:14;;;;;;;7.63;5.57;;;;;;;;;;2101896;28;20493;-81
2022/12/12 04:24:33;;;;;;;9.00;4.57;;;;;;;;;;2099962;28;20036;-81
2022/12/12 04:27:36;;;;;;;6.55;5.07;;;;;;;;;;2102423;28;20029;-81
2022/12/12 04:29:06;;;;;;;8.63;5.53;;;;;;;;;;2109918;28;20028;-80
2022/12/12 04:30:28;;;;;;;6.30;4.90;;;;;;;;;;2097528;28;20468;-81
2022/12/12 04:31:50;;;;;;;5.68;5.18;;;;;;;;;;2100825;28;20025;-81
2022/12/12 04:33:11;;;;;;;5.68;4.72;;;;;;;;;;2098615;28;20032;-81
2022/12/12 04:34:42;;;;;;;6.50;4.85;;;;;;;;;;2099105;28;20028;-81
2022/12/12 04:36:02;;;;;;;6.90;5.35;;;;;;;;;;2092085;28;20477;-81
2022/12/12 04:37:24;;;;;;;5.38;4.72;;;;;;;;;;2096427;28;20032;-81
2022/12/12 04:38:45;;;;;;;5.90;5.30;;;;;;;;;;2105690;28;20028;-82
2022/12/12 04:40:05;;;;;;;7.75;5.32;;;;;;;;;;2102817;28;20060;-81
2022/12/12 04:41:25;;;;;;;7.00;4.90;;;;;;;;;;2097950;28;20408;-81
2022/12/12 04:42:47;;;;;;;7.18;5.10;;;;;;;;;;2096676;28;20024;-81
2022/12/12 04:44:07;;;;;;;8.23;5.00;;;;;;;;;;2096335;28;20043;-81
2022/12/12 04:45:34;;;;;;;5.95;5.07;;;;;;;;;;2096862;28;20167;-82
2022/12/12 04:46:55;;;;;;;6.45;5.15;;;;;;;;;;2107828;28;20531;-82
2022/12/12 04:48:16;;;;;;;7.82;4.97;;;;;;;;;;2103839;28;20489;-82
2022/12/12 04:49:36;;;;;;;6.10;5.00;;;;;;;;;;2101166;28;20452;-82
2022/12/12 04:50:56;;;;;;;6.40;4.72;;;;;;;;;;2099033;28;20041;-82
2022/12/12 04:52:17;;;;;;;6.85;5.30;;;;;;;;;;2096272;28;20432;-82
2022/12/12 04:53:39;;;;;;;9.40;5.60;;;;;;;;;;2099110;28;20028;-82
2022/12/12 04:55:04;;;;;;;4.90;4.47;;;;;;;;;;2097854;28;20033;-83
2022/12/12 04:56:25;;;;;;;6.07;5.47;;;;;;;;;;2100505;28;20103;-81
2022/12/12 04:57:47;;;;;;;6.57;5.20;;;;;;;;;;2097097;28;20032;-82
2022/12/12 04:59:06;;;;;;;10.77;5.28;;;;;;;;;;2095859;28;20029;-81
2022/12/12 05:00:29;;;;;;;9.27;5.28;;;;;;;;;;2098761;28;20404;-81
2022/12/12 05:01:54;;;;;;;9.63;5.65;;;;;;;;;;2098510;28;20020;-81
2022/12/12 05:03:28;;;;;;;7.55;4.95;;;;;;;;;;2107410;28;20150;-81
2022/12/12 05:04:47;;;;;;;6.68;5.53;;;;;;;;;;2099976;28;20041;-81
2022/12/12 05:06:08;;;;;;;6.90;5.68;;;;;;;;;;2100166;28;20028;-81
2022/12/12 05:07:30;;;;;;;6.63;5.53;;;;;;;;;;2100517;28;20039;-81
2022/12/12 05:08:52;;;;;;;6.10;4.90;;;;;;;;;;2102718;28;20095;-82
2022/12/12 05:10:14;;;;;;;6.85;6.05;;;;;;;;;;2098309;28;20028;-82
2022/12/12 05:11:33;;;;;;;8.35;6.10;;;;;;;;;;2104107;28;20024;-82
2022/12/12 05:12:56;;;;;;;7.65;5.53;;;;;;;;;;2100628;28;20060;-82
2022/12/12 05:14:16;;;;;;;8.88;5.43;;;;;;;;;;2098785;28;20453;-82
2022/12/12 05:15:34;;;;;;;9.90;6.32;;;;;;;;;;2096503;28;20455;-81
2022/12/12 05:16:56;;;;;;;5.78;5.22;;;;;;;;;;2094651;28;20037;-81
2022/12/12 05:18:14;;;;;;;8.30;5.80;;;;;;;;;;2097137;28;20031;-80
2022/12/12 05:19:34;;;;;;;12.30;5.65;;;;;;;;;;2097895;28;20028;-81
2022/12/12 05:20:52;;;;;;;8.30;5.40;;;;;;;;;;2093464;28;20044;-81
2022/12/12 05:22:11;;;;;;;9.57;5.60;;;;;;;;;;2099706;28;20037;-84
2022/12/12 05:23:30;;;;;;;7.18;5.05;;;;;;;;;;2097744;28;20377;-82
2022/12/12 05:24:49;;;;;;;7.22;5.07;;;;;;;;;;2097377;28;20032;-81
2022/12/12 05:26:09;;;;;;;9.43;5.82;;;;;;;;;;2099003;28;20501;-80
2022/12/12 05:27:28;;;;;;;6.35;5.57;;;;;;;;;;2097361;28;20116;-83
2022/12/12 05:28:47;;;;;;;7.22;5.22;;;;;;;;;;2094674;28;20056;-83
2022/12/12 05:30:07;;;;;;;7.95;5.65;;;;;;;;;;2092238;28;20033;-84
2022/12/12 05:31:25;;;;;;;7.07;5.20;;;;;;;;;;2092482;28;20028;-84
2022/12/12 05:32:52;;;;;;;7.88;5.22;;;;;;;;;;2096062;28;20040;-86
2022/12/12 05:34:11;;;;;;;8.55;5.63;;;;;;;;;;2101977;28;20020;-85
2022/12/12 05:35:30;;;;;;;6.80;5.22;;;;;;;;;;2100347;28;20021;-84
2022/12/12 05:36:49;;;;;;;8.02;4.68;;;;;;;;;;2091455;28;20029;-84
2022/12/12 05:38:09;;;;;;;6.10;4.90;;;;;;;;;;2092333;28;20025;-85
2022/12/12 05:39:28;;;;;;;5.63;4.80;;;;;;;;;;2096303;28;20059;-83
2022/12/12 05:40:47;;;;;;;6.75;4.65;;;;;;;;;;2100294;28;20021;-85
2022/12/12 05:42:06;;;;;;;8.30;5.22;;;;;;;;;;2098846;28;20040;-83
2022/12/12 05:43:25;;;;;;;5.95;5.15;;;;;;;;;;2099358;28;20024;-83
2022/12/12 05:44:44;;;;;;;5.45;4.80;;;;;;;;;;2100561;28;20036;-83
2022/12/12 05:46:03;;;;;;;6.25;5.25;;;;;;;;;;2096939;28;20029;-80
2022/12/12 05:47:22;;;;;;;5.18;4.68;;;;;;;;;;2088472;28;20037;-84
2022/12/12 05:48:41;;;;;;;10.95;6.43;;;;;;;;;;2094410;28;20021;-84
2022/12/12 05:50:00;;;;;;;8.73;5.57;;;;;;;;;;2092375;28;20068;-84
2022/12/12 05:51:20;;;;;;;7.22;5.25;;;;;;;;;;2092674;28;20024;-81
2022/12/12 05:52:39;;;;;;;6.70;5.15;;;;;;;;;;2098618;28;20501;-80
2022/12/12 05:53:59;;;;;;;5.70;4.95;;;;;;;;;;2095966;28;20500;-80
2022/12/12 05:55:18;;;;;;;7.95;5.22;;;;;;;;;;2101940;28;20056;-80
2022/12/12 05:56:37;;;;;;;12.10;7.72;;;;;;;;;;2098456;28;20455;-79
2022/12/12 05:57:55;;;;;;;10.00;5.68;;;;;;;;;;2099940;28;20071;-80
2022/12/12 05:59:15;;;;;;;7.30;4.53;;;;;;;;;;2101284;28;20389;-80
2022/12/12 06:00:34;;;;;;;7.18;5.32;;;;;;;;;;2099866;28;20043;-80
2022/12/12 06:01:53;;;;;;;7.22;6.10;;;;;;;;;;2097095;28;20033;-80
2022/12/12 06:03:12;;;;;;;5.65;5.05;;;;;;;;;;2094254;28;20035;-80
2022/12/12 06:04:30;;;;;;;6.95;5.03;;;;;;;;;;2096604;28;20025;-79
2022/12/12 06:05:49;;;;;;;7.32;5.35;;;;;;;;;;2098644;28;20028;-81
2022/12/12 06:07:08;;;;;;;7.13;5.65;;;;;;;;;;2099456;28;20025;-80
2022/12/12 06:08:27;;;;;;;12.23;6.22;;;;;;;;;;2095987;28;20025;-80
2022/12/12 06:09:45;;;;;;;10.15;6.25;;;;;;;;;;2098103;28;20021;-80
2022/12/12 06:11:05;;;;;;;6.20;5.20;;;;;;;;;;2099058;28;20024;-83
2022/12/12 06:12:24;;;;;;;6.82;5.97;;;;;;;;;;2097334;28;20107;-83
2022/12/12 06:13:43;;;;;;;7.07;5.38;;;;;;;;;;2096938;28;20021;-84
2022/12/12 06:15:02;;;;;;;6.28;5.57;;;;;;;;;;2097715;28;20028;-80
2022/12/12 06:16:21;;;;;;;9.23;6.18;;;;;;;;;;2098091;28;20032;-81
2022/12/12 06:17:40;;;;;;;6.57;5.57;;;;;;;;;;2098742;28;20552;-80
2022/12/12 06:18:59;;;;;;;6.68;6.00;;;;;;;;;;2099107;28;20035;-80
2022/12/12 06:20:18;;;;;;;7.25;5.90;;;;;;;;;;2097030;28;20020;-82
2022/12/12 06:21:37;;;;;;;7.15;5.85;;;;;;;;;;2100942;28;20017;-79
2022/12/12 06:22:56;;;;;;;9.02;6.43;;;;;;;;;;2100877;28;20032;-80
2022/12/12 06:24:16;;;;;;;7.30;5.65;;;;;;;;;;2096876;28;20024;-79
2022/12/12 06:25:34;;;;;;;7.40;6.43;;;;;;;;;;2101899;28;20021;-79
2022/12/12 06:26:53;;;;;;;9.20;6.22;;;;;;;;;;2100606;28;20020;-79
2022/12/12 06:28:12;;;;;;;8.73;6.80;;;;;;;;;;2097343;28;20488;-79
2022/12/12 06:29:31;;;;;;;10.68;6.55;;;;;;;;;;2101051;28;20036;-79
2022/12/12 06:30:50;;;;;;;9.70;6.78;;;;;;;;;;2098417;28;20633;-79
2022/12/12 06:32:09;;;;;;;9.20;6.47;;;;;;;;;;2096858;28;20425;-80
2022/12/12 06:33:31;;;;;;;8.30;5.60;;;;;;;;;;2084615;28;20064;-79
2022/12/12 06:34:49;;;;;;;10.85;6.68;;;;;;;;;;2081483;28;20492;-79
2022/12/12 06:36:15;;;;;;;8.85;5.95;;;;;;;;;;2082577;28;20045;-79
2022/12/12 06:37:34;;;;;;;9.07;6.38;;;;;;;;;;2084038;28;20041;-79
2022/12/12 06:38:54;;;;;;;10.90;6.72;;;;;;;;;;2081885;28;20037;-80
2022/12/12 06:40:13;;;;;;;10.30;7.28;;;;;;;;;;2085315;28;20030;-79
2022/12/12 06:41:32;;;;;;;9.50;6.38;;;;;;;;;;2085261;28;20489;-79
2022/12/12 06:42:51;;;;;;;9.68;6.22;;;;;;;;;;2081106;28;20033;-79
2022/12/12 06:44:10;;;;;;;10.88;6.68;;;;;;;;;;2083030;28;20517;-79
2022/12/12 06:45:29;;;;;;;10.43;7.15;;;;;;;;;;2085869;28;20037;-79
2022/12/12 06:46:48;;;;;;;10.73;6.57;;;;;;;;;;2084657;28;20056;-80
2022/12/12 06:48:07;;;;;;;12.98;6.50;;;;;;;;;;2080651;28;20026;-80
2022/12/12 06:49:26;;;;;;;10.05;6.05;;;;;;;;;;2080233;28;20026;-81
2022/12/12 06:50:45;;;;;;;9.85;6.43;;;;;;;;;;2084825;28;20038;-80
2022/12/12 06:52:04;;;;;;;10.40;7.00;;;;;;;;;;2085935;28;20029;-81
2022/12/12 06:53:24;;;;;;;8.55;6.30;;;;;;;;;;2084142;28;20033;-79
2022/12/12 06:54:43;;;;;;;9.13;6.65;;;;;;;;;;2080466;28;20411;-80
2022/12/12 06:56:09;;;;;;;8.38;6.05;;;;;;;;;;2081193;28;20486;-79
2022/12/12 06:57:28;;;;;;;11.70;6.93;;;;;;;;;;2077131;28;20037;-79
2022/12/12 06:58:47;;;;;;;7.10;5.97;;;;;;;;;;2077919;28;20022;-78
2022/12/12 07:00:06;;;;;;;9.30;6.57;;;;;;;;;;2079684;28;20033;-79
2022/12/12 07:01:25;;;;;;;9.30;7.13;;;;;;;;;;2079899;28;20037;-79
2022/12/12 07:02:47;;;;;;;11.57;7.15;;;;;;;;;;2081077;28;20073;-79
2022/12/12 07:04:07;;;;;;;9.82;5.20;;;;;;;;;;2083014;28;20112;-79
2022/12/12 07:05:26;;;;;;;8.68;6.35;;;;;;;;;;2084909;28;20030;-80
2022/12/12 07:06:45;;;;;;;14.63;6.90;;;;;;;;;;2085455;28;20029;-79
2022/12/12 07:08:04;;;;;;;10.93;6.55;;;;;;;;;;2081303;28;20058;-80
2022/12/12 07:09:23;;;;;;;9.15;6.65;;;;;;;;;;2080718;28;20025;-80
2022/12/12 07:10:43;;;;;;;12.00;7.13;;;;;;;;;;2066590;28;20419;-80
2022/12/12 07:12:01;;;;;;;9.77;6.68;;;;;;;;;;2079895;28;20033;-79
2022/12/12 07:13:21;;;;;;;9.90;6.32;;;;;;;;;;2080893;28;20518;-80
2022/12/12 07:14:40;;;;;;;9.63;7.30;;;;;;;;;;2082250;28;20041;-80
2022/12/12 07:16:00;;;;;;;13.50;7.38;;;;;;;;;;2082335;28;20065;-80
2022/12/12 07:17:19;;;;;;;12.45;7.47;;;;;;;;;;2081576;28;20053;-79
2022/12/12 07:18:38;;;;;;;10.32;7.13;;;;;;;;;;2084936;28;20478;-80
2022/12/12 07:19:58;;;;;;;8.77;6.72;;;;;;;;;;2085454;28;20029;-79
2022/12/12 07:21:18;;;;;;;14.88;6.88;;;;;;;;;;2083219;28;20065;-80
2022/12/12 07:22:37;;;;;;;9.68;7.03;;;;;;;;;;2086365;28;20029;-80
2022/12/12 07:23:56;;;;;;;11.60;6.55;;;;;;;;;;2084718;28;20041;-80
2022/12/12 07:25:15;;;;;;;13.60;7.07;;;;;;;;;;2084127;28;20029;-79
2022/12/12 07:26:33;;;;;;;9.32;6.70;;;;;;;;;;2085207;28;20033;-79
2022/12/12 07:27:52;;;;;;;9.02;6.78;;;;;;;;;;2085654;28;20029;-80
2022/12/12 07:29:11;;;;;;;9.27;6.03;;;;;;;;;;2084981;28;20029;-80
2022/12/12 07:30:30;;;;;;;11.93;7.22;;;;;;;;;;2083855;28;20511;-80
2022/12/12 07:31:49;;;;;;;10.63;6.15;;;;;;;;;;2084328;28;20390;-80
2022/12/12 07:33:08;;;;;;;9.88;6.82;;;;;;;;;;2099907;28;20049;-79
2022/12/12 07:34:28;;;;;;;9.23;6.95;;;;;;;;;;2098714;28;20464;-80
2022/12/12 07:35:47;;;;;;;9.63;7.03;;;;;;;;;;2099269;28;20436;-80
2022/12/12 07:37:06;;;;;;;8.75;6.30;;;;;;;;;;2097135;28;20025;-80
2022/12/12 07:38:25;;;;;;;9.52;6.55;;;;;;;;;;2096998;28;20504;-80
2022/12/12 07:39:44;;;;;;;11.07;6.80;;;;;;;;;;2097518;28;20029;-80
2022/12/12 07:41:04;;;;;;;7.85;6.75;;;;;;;;;;2098080;28;20024;-80
2022/12/12 07:42:23;;;;;;;10.00;6.97;;;;;;;;;;2096903;28;20415;-80
2022/12/12 07:43:43;;;;;;;8.63;6.85;;;;;;;;;;2095738;28;20051;-79
2022/12/12 07:45:02;;;;;;;10.60;6.90;;;;;;;;;;2100640;28;20044;-79
2022/12/12 07:46:22;;;;;;;9.80;6.85;;;;;;;;;;2097496;28;20032;-79
2022/12/12 07:47:41;;;;;;;9.40;7.00;;;;;;;;;;2102300;28;20028;-79
2022/12/12 07:49:00;;;;;;;9.27;6.10;;;;;;;;;;2091178;28;20033;-78
2022/12/12 07:50:19;;;;;;;11.90;6.70;;;;;;;;;;2094059;28;20450;-77
2022/12/12 07:51:37;;;;;;;9.15;6.40;;;;;;;;;;2100878;28;20028;-79
2022/12/12 07:52:56;;;;;;;9.52;6.30;;;;;;;;;;2101628;28;20025;-80
2022/12/12 07:54:15;;;;;;;9.80;6.97;;;;;;;;;;2098126;28;20033;-78
2022/12/12 07:55:38;;;;;;;10.45;6.80;;;;;;;;;;2102333;28;20025;-79
2022/12/12 07:56:57;;;;;;;13.18;7.32;;;;;;;;;;2093373;28;20024;-79
2022/12/12 07:58:16;;;;;;;11.15;6.85;;;;;;;;;;2094367;28;20024;-79
2022/12/12 07:59:35;;;;;;;8.77;6.70;;;;;;;;;;2098172;28;20032;-78
2022/12/12 08:00:54;;;;;;;9.57;5.60;;;;;;;;;;2093648;28;20032;-78
2022/12/12 08:02:12;;;;;;;9.50;5.93;;;;;;;;;;2096108;28;20032;-78
2022/12/12 08:03:31;;;;;;;10.60;6.85;;;;;;;;;;2099812;28;20114;-78
2022/12/12 08:04:50;;;;;;;8.32;6.57;;;;;;;;;;2096615;28;20025;-78
2022/12/12 08:06:09;;;;;;;8.93;6.38;;;;;;;;;;2096427;28;20064;-79
2022/12/12 08:07:28;;;;;;;8.80;6.07;;;;;;;;;;2105582;28;20043;-80
2022/12/12 08:08:48;;;;;;;9.13;6.18;;;;;;;;;;2094704;28;20021;-78
2022/12/12 08:10:07;;;;;;;8.80;6.20;;;;;;;;;;2101112;28;20107;-78
2022/12/12 08:11:27;;;;;;;8.98;6.35;;;;;;;;;;2099772;28;20702;-78
2022/12/12 08:12:46;;;;;;;9.63;6.43;;;;;;;;;;2098828;28;20028;-78
2022/12/12 08:14:05;;;;;;;7.43;6.22;;;;;;;;;;2099600;28;20539;-79
2022/12/12 08:15:24;;;;;;;8.82;6.25;;;;;;;;;;2100723;28;20033;-79
2022/12/12 08:16:43;;;;;;;11.63;7.45;;;;;;;;;;2101282;28;20080;-78
2022/12/12 08:18:02;;;;;;;9.18;7.10;;;;;;;;;;2100989;28;20044;-78
2022/12/12 08:19:21;;;;;;;8.43;6.55;;;;;;;;;;2099821;28;20036;-79
2022/12/12 08:20:40;;;;;;;9.80;6.05;;;;;;;;;;2097384;28;20488;-79